sensor_id;sensor_type;location;lat;lon;timestamp;pressure;altitude;pressure_sealevel;temperature;humidity
56038;BME280;41907;47.848;9.000;2022-11-15T00:00:07;95678.13;;;3.61;100.00
56038;BME280;41907;47.848;9.000;2022-11-15T00:02:33;95663.63;;;3.49;100.00
56038;BME280;41907;47.848;9.000;2022-11-15T00:04:58;95671.78;;;3.52;100.00
56038;BME280;41907;47.848;9.000;2022-11-15T00:07:23;95687.88;;;3.66;100.00
56038;BME280;41907;47.848;9.000;2022-11-15T00:09:49;95688.94;;;3.70;100.00
56038;BME280;41907;47.848;9.000;2022-11-15T00:12:14;95692.09;;;3.82;100.00
56038;BME280;41907;47.848;9.000;2022-11-15T00:14:39;95686.81;;;3.82;100.00
56038;BME280;41907;47.848;9.000;2022-11-15T00:17:05;95677.03;;;3.78;100.00
56038;BME280;41907;47.848;9.000;2022-11-15T00:19:30;95671.25;;;3.60;100.00
56038;BME280;41907;47.848;9.000;2022-11-15T00:21:55;95673.63;;;3.52;100.00
56038;BME280;41907;47.848;9.000;2022-11-15T00:24:21;95670.22;;;3.41;100.00
56038;BME280;41907;47.848;9.000;2022-11-15T00:26:46;95659.66;;;3.51;100.00
56038;BME280;41907;47.848;9.000;2022-11-15T00:29:11;95660.72;;;3.55;100.00
56038;BME280;41907;47.848;9.000;2022-11-15T00:31:37;95661.78;;;3.54;100.00
56038;BME280;41907;47.848;9.000;2022-11-15T00:34:02;95663.63;;;3.39;100.00
56038;BME280;41907;47.848;9.000;2022-11-15T00:36:28;95656.25;;;3.25;100.00
56038;BME280;41907;47.848;9.000;2022-11-15T00:38:53;95657.81;;;3.31;100.00
56038;BME280;41907;47.848;9.000;2022-11-15T00:41:19;95660.44;;;3.42;100.00
56038;BME280;41907;47.848;9.000;2022-11-15T00:43:44;95660.44;;;3.52;100.00
56038;BME280;41907;47.848;9.000;2022-11-15T00:46:09;95652.03;;;3.55;100.00
56038;BME280;41907;47.848;9.000;2022-11-15T00:48:35;95658.09;;;3.55;100.00
56038;BME280;41907;47.848;9.000;2022-11-15T00:51:01;95649.38;;;3.50;100.00
56038;BME280;41907;47.848;9.000;2022-11-15T00:53:27;95639.63;;;3.40;100.00
56038;BME280;41907;47.848;9.000;2022-11-15T00:55:52;95640.44;;;3.46;100.00
56038;BME280;41907;47.848;9.000;2022-11-15T00:58:18;95645.97;;;3.34;100.00
56038;BME280;41907;47.848;9.000;2022-11-15T01:00:43;95643.34;;;3.29;100.00
56038;BME280;41907;47.848;9.000;2022-11-15T01:03:09;95635.69;;;3.27;100.00
56038;BME280;41907;47.848;9.000;2022-11-15T01:05:37;95637.25;;;3.23;100.00
56038;BME280;41907;47.848;9.000;2022-11-15T01:08:02;95635.94;;;3.31;100.00
56038;BME280;41907;47.848;9.000;2022-11-15T01:10:27;95646.47;;;3.41;100.00
56038;BME280;41907;47.848;9.000;2022-11-15T01:12:53;95646.50;;;3.46;100.00
56038;BME280;41907;47.848;9.000;2022-11-15T01:15:18;95642.00;;;3.47;100.00
56038;BME280;41907;47.848;9.000;2022-11-15T01:17:43;95642.78;;;3.42;100.00
56038;BME280;41907;47.848;9.000;2022-11-15T01:20:09;95639.91;;;3.39;100.00
56038;BME280;41907;47.848;9.000;2022-11-15T01:22:35;95643.84;;;3.36;100.00
56038;BME280;41907;47.848;9.000;2022-11-15T01:25:00;95636.22;;;3.34;100.00
56038;BME280;41907;47.848;9.000;2022-11-15T01:27:25;95644.91;;;3.25;100.00
56038;BME280;41907;47.848;9.000;2022-11-15T01:29:51;95629.34;;;3.23;100.00
56038;BME280;41907;47.848;9.000;2022-11-15T01:32:16;95633.84;;;3.18;100.00
56038;BME280;41907;47.848;9.000;2022-11-15T01:34:41;95635.94;;;3.16;100.00
56038;BME280;41907;47.848;9.000;2022-11-15T01:37:07;95632.78;;;3.09;100.00
56038;BME280;41907;47.848;9.000;2022-11-15T01:39:32;95625.38;;;3.06;100.00
56038;BME280;41907;47.848;9.000;2022-11-15T01:41:57;95626.69;;;3.13;100.00
56038;BME280;41907;47.848;9.000;2022-11-15T01:47:08;95624.34;;;3.37;100.00
56038;BME280;41907;47.848;9.000;2022-11-15T01:49:35;95614.59;;;3.27;100.00
56038;BME280;41907;47.848;9.000;2022-11-15T01:52:05;95611.69;;;3.44;100.00
56038;BME280;41907;47.848;9.000;2022-11-15T01:54:32;95613.53;;;3.44;100.00
56038;BME280;41907;47.848;9.000;2022-11-15T01:57:06;95609.06;;;3.34;100.00
56038;BME280;41907;47.848;9.000;2022-11-15T01:59:35;95601.41;;;3.43;100.00
56038;BME280;41907;47.848;9.000;2022-11-15T02:02:01;95603.00;;;3.33;100.00
56038;BME280;41907;47.848;9.000;2022-11-15T02:04:29;95592.72;;;3.37;100.00
56038;BME280;41907;47.848;9.000;2022-11-15T02:06:56;95599.28;;;3.45;100.00
56038;BME280;41907;47.848;9.000;2022-11-15T02:09:22;95590.31;;;3.51;100.00
56038;BME280;41907;47.848;9.000;2022-11-15T02:11:49;95588.72;;;3.60;100.00
56038;BME280;41907;47.848;9.000;2022-11-15T02:14:18;95581.91;;;3.44;100.00
56038;BME280;41907;47.848;9.000;2022-11-15T02:17:03;95586.13;;;3.34;100.00
56038;BME280;41907;47.848;9.000;2022-11-15T02:22:17;95579.28;;;3.33;100.00
56038;BME280;41907;47.848;9.000;2022-11-15T02:32:49;95571.88;;;3.56;100.00
56038;BME280;41907;47.848;9.000;2022-11-15T02:37:52;95566.31;;;3.67;100.00
56038;BME280;41907;47.848;9.000;2022-11-15T02:40:23;95563.69;;;3.67;100.00
56038;BME280;41907;47.848;9.000;2022-11-15T02:43:04;95557.06;;;3.70;100.00
56038;BME280;41907;47.848;9.000;2022-11-15T02:45:56;95550.97;;;3.69;100.00
56038;BME280;41907;47.848;9.000;2022-11-15T02:48:25;95545.44;;;3.76;100.00
56038;BME280;41907;47.848;9.000;2022-11-15T02:50:51;95555.16;;;3.96;100.00
56038;BME280;41907;47.848;9.000;2022-11-15T02:53:17;95546.44;;;3.95;100.00
56038;BME280;41907;47.848;9.000;2022-11-15T02:55:48;95552.50;;;3.91;100.00
56038;BME280;41907;47.848;9.000;2022-11-15T03:12:08;95530.13;;;4.37;100.00
56038;BME280;41907;47.848;9.000;2022-11-15T03:14:49;95520.34;;;4.38;100.00
56038;BME280;41907;47.848;9.000;2022-11-15T03:17:23;95517.78;;;4.28;100.00
56038;BME280;41907;47.848;9.000;2022-11-15T03:19:53;95515.41;;;4.26;100.00
56038;BME280;41907;47.848;9.000;2022-11-15T03:22:22;95525.47;;;4.24;100.00
56038;BME280;41907;47.848;9.000;2022-11-15T03:24:54;95519.72;;;4.12;100.00
56038;BME280;41907;47.848;9.000;2022-11-15T03:27:23;95513.44;;;3.98;100.00
56038;BME280;41907;47.848;9.000;2022-11-15T03:29:54;95519.03;;;3.86;100.00
56038;BME280;41907;47.848;9.000;2022-11-15T03:32:25;95515.59;;;3.86;100.00
56038;BME280;41907;47.848;9.000;2022-11-15T03:35:01;95517.94;;;3.92;100.00
56038;BME280;41907;47.848;9.000;2022-11-15T03:40:03;95513.91;;;4.10;100.00
56038;BME280;41907;47.848;9.000;2022-11-15T03:45:13;95522.34;;;4.12;100.00
56038;BME280;41907;47.848;9.000;2022-11-15T03:47:48;95511.00;;;4.11;100.00
56038;BME280;41907;47.848;9.000;2022-11-15T03:50:21;95522.31;;;4.22;100.00
56038;BME280;41907;47.848;9.000;2022-11-15T03:52:48;95505.72;;;4.11;100.00
56038;BME280;41907;47.848;9.000;2022-11-15T03:55:19;95505.47;;;4.08;100.00
56038;BME280;41907;47.848;9.000;2022-11-15T03:57:46;95500.19;;;4.08;100.00
56038;BME280;41907;47.848;9.000;2022-11-15T04:00:13;95499.97;;;4.04;100.00
56038;BME280;41907;47.848;9.000;2022-11-15T04:02:38;95490.25;;;3.95;100.00
56038;BME280;41907;47.848;9.000;2022-11-15T04:05:04;95496.06;;;3.92;100.00
56038;BME280;41907;47.848;9.000;2022-11-15T04:07:29;95497.38;;;3.94;100.00
56038;BME280;41907;47.848;9.000;2022-11-15T04:09:55;95496.56;;;3.94;100.00
56038;BME280;41907;47.848;9.000;2022-11-15T04:12:32;95501.06;;;3.93;100.00
56038;BME280;41907;47.848;9.000;2022-11-15T04:15:03;95497.13;;;3.86;100.00
56038;BME280;41907;47.848;9.000;2022-11-15T04:17:44;95508.19;;;3.93;100.00
56038;BME280;41907;47.848;9.000;2022-11-15T04:20:17;95508.38;;;4.06;100.00
56038;BME280;41907;47.848;9.000;2022-11-15T04:23:22;95505.25;;;4.04;100.00
56038;BME280;41907;47.848;9.000;2022-11-15T04:26:08;95512.31;;;4.09;100.00
56038;BME280;41907;47.848;9.000;2022-11-15T04:28:35;95505.72;;;4.06;100.00
56038;BME280;41907;47.848;9.000;2022-11-15T04:31:21;95503.25;;;4.30;100.00
56038;BME280;41907;47.848;9.000;2022-11-15T04:33:46;95503.78;;;4.27;100.00
56038;BME280;41907;47.848;9.000;2022-11-15T04:36:11;95490.53;;;4.37;100.00
56038;BME280;41907;47.848;9.000;2022-11-15T04:39:03;95495.72;;;4.53;100.00
56038;BME280;41907;47.848;9.000;2022-11-15T04:41:28;95487.88;;;4.42;100.00
56038;BME280;41907;47.848;9.000;2022-11-15T04:43:54;95488.41;;;4.39;100.00
56038;BME280;41907;47.848;9.000;2022-11-15T04:46:20;95487.88;;;4.37;100.00
56038;BME280;41907;47.848;9.000;2022-11-15T04:48:45;95485.03;;;4.34;100.00
56038;BME280;41907;47.848;9.000;2022-11-15T04:51:10;95484.25;;;4.28;100.00
56038;BME280;41907;47.848;9.000;2022-11-15T04:53:36;95477.66;;;4.26;100.00
56038;BME280;41907;47.848;9.000;2022-11-15T04:56:01;95479.81;;;4.19;100.00
56038;BME280;41907;47.848;9.000;2022-11-15T04:58:26;95486.66;;;4.20;100.00
56038;BME280;41907;47.848;9.000;2022-11-15T05:00:52;95482.38;;;4.34;100.00
56038;BME280;41907;47.848;9.000;2022-11-15T05:03:17;95489.72;;;4.42;100.00
56038;BME280;41907;47.848;9.000;2022-11-15T05:06:01;95477.09;;;4.34;100.00
56038;BME280;41907;47.848;9.000;2022-11-15T05:08:26;95486.72;;;4.09;100.00
56038;BME280;41907;47.848;9.000;2022-11-15T05:10:52;95488.31;;;4.10;100.00
56038;BME280;41907;47.848;9.000;2022-11-15T05:13:17;95486.72;;;4.15;100.00
56038;BME280;41907;47.848;9.000;2022-11-15T05:15:43;95483.91;;;3.96;100.00
56038;BME280;41907;47.848;9.000;2022-11-15T05:18:08;95479.72;;;3.85;100.00
56038;BME280;41907;47.848;9.000;2022-11-15T05:20:33;95480.00;;;3.78;100.00
56038;BME280;41907;47.848;9.000;2022-11-15T05:22:59;95482.13;;;3.81;100.00
56038;BME280;41907;47.848;9.000;2022-11-15T05:25:24;95472.03;;;3.88;100.00
56038;BME280;41907;47.848;9.000;2022-11-15T05:27:50;95473.19;;;3.77;100.00
56038;BME280;41907;47.848;9.000;2022-11-15T05:30:16;95467.69;;;3.63;100.00
56038;BME280;41907;47.848;9.000;2022-11-15T05:32:42;95470.34;;;3.58;100.00
56038;BME280;41907;47.848;9.000;2022-11-15T05:35:08;95463.78;;;3.41;100.00
56038;BME280;41907;47.848;9.000;2022-11-15T05:37:37;95473.31;;;3.31;100.00
56038;BME280;41907;47.848;9.000;2022-11-15T05:40:02;95470.47;;;3.18;100.00
56038;BME280;41907;47.848;9.000;2022-11-15T05:42:29;95463.88;;;3.10;100.00
56038;BME280;41907;47.848;9.000;2022-11-15T05:44:54;95465.16;;;3.23;100.00
56038;BME280;41907;47.848;9.000;2022-11-15T05:47:24;95466.44;;;3.30;100.00
56038;BME280;41907;47.848;9.000;2022-11-15T05:49:52;95468.03;;;3.36;100.00
56038;BME280;41907;47.848;9.000;2022-11-15T05:52:22;95460.09;;;3.42;100.00
56038;BME280;41907;47.848;9.000;2022-11-15T05:54:49;95463.88;;;3.15;100.00
56038;BME280;41907;47.848;9.000;2022-11-15T05:57:15;95456.22;;;3.19;100.00
56038;BME280;41907;47.848;9.000;2022-11-15T05:59:41;95455.69;;;3.17;100.00
56038;BME280;41907;47.848;9.000;2022-11-15T06:02:08;95453.31;;;3.25;100.00
56038;BME280;41907;47.848;9.000;2022-11-15T06:04:34;95462.28;;;3.19;100.00
56038;BME280;41907;47.848;9.000;2022-11-15T06:06:59;95452.25;;;3.21;100.00
56038;BME280;41907;47.848;9.000;2022-11-15T06:09:25;95457.28;;;3.13;100.00
56038;BME280;41907;47.848;9.000;2022-11-15T06:11:50;95468.84;;;3.22;100.00
56038;BME280;41907;47.848;9.000;2022-11-15T06:14:15;95476.53;;;3.18;100.00
56038;BME280;41907;47.848;9.000;2022-11-15T06:16:40;95470.19;;;3.19;100.00
56038;BME280;41907;47.848;9.000;2022-11-15T06:19:06;95465.75;;;2.94;100.00
56038;BME280;41907;47.848;9.000;2022-11-15T06:21:34;95458.63;;;2.85;100.00
56038;BME280;41907;47.848;9.000;2022-11-15T06:23:59;95465.50;;;2.81;100.00
56038;BME280;41907;47.848;9.000;2022-11-15T06:26:25;95466.84;;;2.73;100.00
56038;BME280;41907;47.848;9.000;2022-11-15T06:28:50;95463.41;;;2.68;100.00
56038;BME280;41907;47.848;9.000;2022-11-15T06:31:15;95463.66;;;2.76;100.00
56038;BME280;41907;47.848;9.000;2022-11-15T06:33:41;95464.44;;;2.92;100.00
56038;BME280;41907;47.848;9.000;2022-11-15T06:36:09;95463.63;;;3.07;100.00
56038;BME280;41907;47.848;9.000;2022-11-15T06:38:35;95462.56;;;3.18;100.00
56038;BME280;41907;47.848;9.000;2022-11-15T06:41:02;95463.31;;;3.28;100.00
56038;BME280;41907;47.848;9.000;2022-11-15T06:43:28;95461.16;;;3.46;100.00
56038;BME280;41907;47.848;9.000;2022-11-15T06:45:53;95455.84;;;4.10;100.00
56038;BME280;41907;47.848;9.000;2022-11-15T06:48:18;95459.41;;;4.68;100.00
56038;BME280;41907;47.848;9.000;2022-11-15T06:50:53;95453.63;;;5.24;100.00
56038;BME280;41907;47.848;9.000;2022-11-15T06:53:19;95435.06;;;5.95;100.00
56038;BME280;41907;47.848;9.000;2022-11-15T06:55:45;95435.78;;;6.90;100.00
56038;BME280;41907;47.848;9.000;2022-11-15T06:58:10;95435.28;;;7.61;100.00
56038;BME280;41907;47.848;9.000;2022-11-15T07:00:35;95439.41;;;7.67;100.00
56038;BME280;41907;47.848;9.000;2022-11-15T07:03:01;95441.97;;;7.72;100.00
56038;BME280;41907;47.848;9.000;2022-11-15T07:05:26;95432.81;;;8.42;100.00
56038;BME280;41907;47.848;9.000;2022-11-15T07:07:53;95434.97;;;9.38;100.00
56038;BME280;41907;47.848;9.000;2022-11-15T07:10:19;95427.41;;;10.19;95.40
56038;BME280;41907;47.848;9.000;2022-11-15T07:12:47;95435.53;;;11.08;89.56
56038;BME280;41907;47.848;9.000;2022-11-15T07:15:14;95428.38;;;11.85;84.98
56038;BME280;41907;47.848;9.000;2022-11-15T07:17:40;95437.19;;;12.56;81.12
56038;BME280;41907;47.848;9.000;2022-11-15T07:20:05;95442.63;;;13.01;77.87
56038;BME280;41907;47.848;9.000;2022-11-15T07:22:31;95434.06;;;13.53;75.27
56038;BME280;41907;47.848;9.000;2022-11-15T07:24:56;95438.53;;;14.34;71.95
56038;BME280;41907;47.848;9.000;2022-11-15T07:27:21;95428.88;;;14.98;69.01
56038;BME280;41907;47.848;9.000;2022-11-15T07:29:47;95430.91;;;15.16;66.17
56038;BME280;41907;47.848;9.000;2022-11-15T07:32:12;95430.22;;;15.63;65.60
56038;BME280;41907;47.848;9.000;2022-11-15T07:34:37;95427.00;;;15.89;64.11
56038;BME280;41907;47.848;9.000;2022-11-15T07:37:03;95426.66;;;16.41;63.49
56038;BME280;41907;47.848;9.000;2022-11-15T07:39:28;95427.56;;;17.03;60.13
56038;BME280;41907;47.848;9.000;2022-11-15T07:41:53;95428.84;;;17.09;59.30
56038;BME280;41907;47.848;9.000;2022-11-15T07:44:39;95419.25;;;17.31;58.69
56038;BME280;41907;47.848;9.000;2022-11-15T07:47:04;95426.94;;;16.90;58.61
56038;BME280;41907;47.848;9.000;2022-11-15T07:49:29;95429.59;;;16.01;60.94
56038;BME280;41907;47.848;9.000;2022-11-15T07:51:55;95425.81;;;14.31;66.45
56038;BME280;41907;47.848;9.000;2022-11-15T07:54:20;95435.41;;;13.02;72.86
56038;BME280;41907;47.848;9.000;2022-11-15T07:56:45;95433.34;;;12.24;77.98
56038;BME280;41907;47.848;9.000;2022-11-15T07:59:11;95434.44;;;11.56;85.68
56038;BME280;41907;47.848;9.000;2022-11-15T08:01:36;95433.78;;;11.68;84.14
56038;BME280;41907;47.848;9.000;2022-11-15T08:04:01;95430.16;;;11.17;85.81
56038;BME280;41907;47.848;9.000;2022-11-15T08:06:26;95428.66;;;10.81;91.38
56038;BME280;41907;47.848;9.000;2022-11-15T08:08:52;95421.00;;;10.63;90.90
56038;BME280;41907;47.848;9.000;2022-11-15T08:11:17;95420.22;;;10.62;93.54
56038;BME280;41907;47.848;9.000;2022-11-15T08:13:42;95417.06;;;10.52;95.01
56038;BME280;41907;47.848;9.000;2022-11-15T08:16:08;95420.03;;;10.76;96.01
56038;BME280;41907;47.848;9.000;2022-11-15T08:18:34;95418.00;;;10.81;94.67
56038;BME280;41907;47.848;9.000;2022-11-15T08:21:03;95411.34;;;11.60;90.84
56038;BME280;41907;47.848;9.000;2022-11-15T08:23:28;95405.56;;;12.17;87.08
56038;BME280;41907;47.848;9.000;2022-11-15T08:25:59;95403.78;;;12.62;84.09
56038;BME280;41907;47.848;9.000;2022-11-15T08:28:25;95394.31;;;13.43;80.08
56038;BME280;41907;47.848;9.000;2022-11-15T08:30:50;95388.66;;;14.58;71.99
56038;BME280;41907;47.848;9.000;2022-11-15T08:33:15;95397.78;;;14.97;72.31
56038;BME280;41907;47.848;9.000;2022-11-15T08:35:42;95395.34;;;16.52;63.84
56038;BME280;41907;47.848;9.000;2022-11-15T08:38:08;95382.22;;;17.51;60.37
56038;BME280;41907;47.848;9.000;2022-11-15T08:40:34;95383.97;;;18.64;57.66
56038;BME280;41907;47.848;9.000;2022-11-15T08:43:00;95384.59;;;18.84;54.42
56038;BME280;41907;47.848;9.000;2022-11-15T08:45:28;95380.38;;;18.56;54.62
56038;BME280;41907;47.848;9.000;2022-11-15T08:47:53;95387.53;;;19.42;52.16
56038;BME280;41907;47.848;9.000;2022-11-15T08:50:19;95385.66;;;19.94;52.32
56038;BME280;41907;47.848;9.000;2022-11-15T08:52:44;95392.00;;;20.74;50.21
56038;BME280;41907;47.848;9.000;2022-11-15T08:55:10;95383.34;;;21.66;48.76
56038;BME280;41907;47.848;9.000;2022-11-15T08:57:35;95379.81;;;21.40;47.09
56038;BME280;41907;47.848;9.000;2022-11-15T09:00:00;95385.31;;;20.54;50.03
56038;BME280;41907;47.848;9.000;2022-11-15T09:02:26;95385.16;;;21.12;47.26
56038;BME280;41907;47.848;9.000;2022-11-15T09:04:51;95386.00;;;21.37;47.06
56038;BME280;41907;47.848;9.000;2022-11-15T09:07:17;95382.56;;;21.79;45.44
56038;BME280;41907;47.848;9.000;2022-11-15T09:09:42;95384.13;;;22.26;44.58
56038;BME280;41907;47.848;9.000;2022-11-15T09:12:08;95389.88;;;22.46;43.61
56038;BME280;41907;47.848;9.000;2022-11-15T09:14:34;95391.47;;;22.40;44.27
56038;BME280;41907;47.848;9.000;2022-11-15T09:16:59;95387.59;;;22.27;44.45
56038;BME280;41907;47.848;9.000;2022-11-15T09:19:25;95382.56;;;22.18;44.40
56038;BME280;41907;47.848;9.000;2022-11-15T09:21:50;95383.25;;;22.61;44.38
56038;BME280;41907;47.848;9.000;2022-11-15T09:24:16;95388.59;;;22.97;44.05
56038;BME280;41907;47.848;9.000;2022-11-15T09:26:42;95389.44;;;22.65;43.73
56038;BME280;41907;47.848;9.000;2022-11-15T09:29:08;95397.66;;;21.63;44.88
56038;BME280;41907;47.848;9.000;2022-11-15T09:31:33;95393.13;;;20.08;48.74
56038;BME280;41907;47.848;9.000;2022-11-15T09:33:58;95394.75;;;18.94;52.61
56038;BME280;41907;47.848;9.000;2022-11-15T09:36:24;95392.00;;;18.90;53.40
56038;BME280;41907;47.848;9.000;2022-11-15T09:38:50;95395.50;;;18.08;55.92
56038;BME280;41907;47.848;9.000;2022-11-15T09:49:30;95385.28;;;19.11;53.61
56038;BME280;41907;47.848;9.000;2022-11-15T09:51:56;95381.47;;;19.52;50.66
56038;BME280;41907;47.848;9.000;2022-11-15T09:54:36;95376.63;;;19.76;50.68
56038;BME280;41907;47.848;9.000;2022-11-15T09:57:31;95383.72;;;20.49;48.08
56038;BME280;41907;47.848;9.000;2022-11-15T10:05:10;95373.47;;;20.97;47.12
56038;BME280;41907;47.848;9.000;2022-11-15T10:10:57;95366.88;;;20.84;46.81
56038;BME280;41907;47.848;9.000;2022-11-15T10:13:25;95365.31;;;19.26;49.73
56038;BME280;41907;47.848;9.000;2022-11-15T10:15:53;95362.28;;;17.78;53.68
56038;BME280;41907;47.848;9.000;2022-11-15T10:21:35;95371.47;;;15.49;63.66
56038;BME280;41907;47.848;9.000;2022-11-15T10:24:09;95357.00;;;15.07;65.15
56038;BME280;41907;47.848;9.000;2022-11-15T10:26:35;95346.97;;;14.36;68.93
56038;BME280;41907;47.848;9.000;2022-11-15T10:29:01;95356.22;;;14.10;73.49
56038;BME280;41907;47.848;9.000;2022-11-15T10:31:27;95352.44;;;13.99;74.75
56038;BME280;41907;47.848;9.000;2022-11-15T10:34:17;95356.47;;;13.81;76.60
56038;BME280;41907;47.848;9.000;2022-11-15T10:36:59;95333.59;;;13.71;78.84
56038;BME280;41907;47.848;9.000;2022-11-15T10:39:26;95336.75;;;13.37;80.54
56038;BME280;41907;47.848;9.000;2022-11-15T10:41:52;95334.94;;;13.29;83.68
56038;BME280;41907;47.848;9.000;2022-11-15T10:44:28;95339.41;;;13.37;83.67
56038;BME280;41907;47.848;9.000;2022-11-15T10:49:27;95338.31;;;13.38;84.15
56038;BME280;41907;47.848;9.000;2022-11-15T10:52:12;95342.66;;;13.30;85.71
56038;BME280;41907;47.848;9.000;2022-11-15T10:54:43;95341.84;;;13.18;86.20
56038;BME280;41907;47.848;9.000;2022-11-15T10:57:33;95336.75;;;12.59;91.03
56038;BME280;41907;47.848;9.000;2022-11-15T11:00:07;95333.03;;;12.72;90.37
56038;BME280;41907;47.848;9.000;2022-11-15T11:02:40;95326.28;;;12.54;90.29
56038;BME280;41907;47.848;9.000;2022-11-15T11:05:37;95322.06;;;12.11;92.25
56038;BME280;41907;47.848;9.000;2022-11-15T11:10:55;95318.28;;;11.91;97.12
56038;BME280;41907;47.848;9.000;2022-11-15T11:13:32;95314.44;;;12.01;95.99
56038;BME280;41907;47.848;9.000;2022-11-15T11:21:12;95305.03;;;11.45;99.63
56038;BME280;41907;47.848;9.000;2022-11-15T11:23:46;95293.78;;;11.39;100.00
56038;BME280;41907;47.848;9.000;2022-11-15T11:29:44;95302.25;;;11.12;100.00
56038;BME280;41907;47.848;9.000;2022-11-15T11:32:49;95291.44;;;11.00;100.00
56038;BME280;41907;47.848;9.000;2022-11-15T11:38:16;95292.47;;;11.16;100.00
56038;BME280;41907;47.848;9.000;2022-11-15T11:41:07;95292.84;;;11.35;100.00
56038;BME280;41907;47.848;9.000;2022-11-15T11:43:59;95284.06;;;11.35;99.35
56038;BME280;41907;47.848;9.000;2022-11-15T11:49:33;95282.44;;;11.42;97.82
56038;BME280;41907;47.848;9.000;2022-11-15T12:00:23;95284.78;;;11.14;100.00
56038;BME280;41907;47.848;9.000;2022-11-15T12:03:09;95288.59;;;11.05;100.00
56038;BME280;41907;47.848;9.000;2022-11-15T12:05:42;95286.53;;;11.10;100.00
56038;BME280;41907;47.848;9.000;2022-11-15T12:08:36;95279.25;;;10.90;100.00
56038;BME280;41907;47.848;9.000;2022-11-15T12:13:58;95269.91;;;11.05;100.00
56038;BME280;41907;47.848;9.000;2022-11-15T12:16:27;95265.94;;;11.19;100.00
56038;BME280;41907;47.848;9.000;2022-11-15T12:18:56;95270.41;;;10.98;100.00
56038;BME280;41907;47.848;9.000;2022-11-15T12:21:27;95265.78;;;11.16;100.00
56038;BME280;41907;47.848;9.000;2022-11-15T12:24:04;95260.06;;;11.26;100.00
56038;BME280;41907;47.848;9.000;2022-11-15T12:26:38;95258.81;;;11.32;99.97
56038;BME280;41907;47.848;9.000;2022-11-15T12:29:20;95250.00;;;11.32;99.70
56038;BME280;41907;47.848;9.000;2022-11-15T12:31:51;95238.41;;;11.28;99.50
56038;BME280;41907;47.848;9.000;2022-11-15T12:36:47;95227.88;;;11.02;100.00
56038;BME280;41907;47.848;9.000;2022-11-15T12:39:13;95231.78;;;10.75;100.00
56038;BME280;41907;47.848;9.000;2022-11-15T13:02:39;95188.09;;;10.50;100.00
56038;BME280;41907;47.848;9.000;2022-11-15T13:12:56;95173.66;;;10.51;100.00
56038;BME280;41907;47.848;9.000;2022-11-15T13:18:39;95162.16;;;10.21;100.00
56038;BME280;41907;47.848;9.000;2022-11-15T13:21:24;95157.13;;;10.20;100.00
56038;BME280;41907;47.848;9.000;2022-11-15T13:24:16;95158.88;;;10.24;100.00
56038;BME280;41907;47.848;9.000;2022-11-15T13:26:42;95159.19;;;10.05;100.00
56038;BME280;41907;47.848;9.000;2022-11-15T13:29:17;95151.03;;;10.11;100.00
56038;BME280;41907;47.848;9.000;2022-11-15T13:31:44;95158.09;;;10.06;100.00
56038;BME280;41907;47.848;9.000;2022-11-15T13:34:28;95156.22;;;10.07;100.00
56038;BME280;41907;47.848;9.000;2022-11-15T13:36:54;95161.75;;;9.76;100.00
56038;BME280;41907;47.848;9.000;2022-11-15T13:41:51;95158.59;;;9.91;100.00
56038;BME280;41907;47.848;9.000;2022-11-15T13:44:25;95151.72;;;9.90;100.00
56038;BME280;41907;47.848;9.000;2022-11-15T13:47:04;95142.28;;;9.93;100.00
56038;BME280;41907;47.848;9.000;2022-11-15T13:49:32;95147.31;;;9.94;100.00
56038;BME280;41907;47.848;9.000;2022-11-15T13:51:59;95138.22;;;9.95;100.00
56038;BME280;41907;47.848;9.000;2022-11-15T13:54:38;95141.50;;;9.92;100.00
56038;BME280;41907;47.848;9.000;2022-11-15T13:57:19;95132.00;;;9.65;100.00
56038;BME280;41907;47.848;9.000;2022-11-15T14:00:00;95141.25;;;9.68;100.00
56038;BME280;41907;47.848;9.000;2022-11-15T14:02:30;95134.22;;;9.55;100.00
56038;BME280;41907;47.848;9.000;2022-11-15T14:05:02;95128.09;;;9.54;100.00
56038;BME280;41907;47.848;9.000;2022-11-15T14:07:30;95134.41;;;9.41;100.00
56038;BME280;41907;47.848;9.000;2022-11-15T14:09:57;95130.31;;;9.26;100.00
56038;BME280;41907;47.848;9.000;2022-11-15T14:12:35;95124.38;;;9.21;100.00
56038;BME280;41907;47.848;9.000;2022-11-15T14:15:38;95127.81;;;9.39;100.00
56038;BME280;41907;47.848;9.000;2022-11-15T14:18:05;95116.06;;;9.48;100.00
56038;BME280;41907;47.848;9.000;2022-11-15T14:20:38;95112.31;;;9.49;100.00
56038;BME280;41907;47.848;9.000;2022-11-15T14:23:25;95113.09;;;9.58;100.00
56038;BME280;41907;47.848;9.000;2022-11-15T14:25:55;95102.28;;;9.55;100.00
56038;BME280;41907;47.848;9.000;2022-11-15T14:30:47;95101.19;;;9.56;100.00
56038;BME280;41907;47.848;9.000;2022-11-15T14:33:25;95099.28;;;9.56;100.00
56038;BME280;41907;47.848;9.000;2022-11-15T14:35:54;95103.38;;;9.45;100.00
56038;BME280;41907;47.848;9.000;2022-11-15T14:38:21;95098.22;;;9.40;100.00
56038;BME280;41907;47.848;9.000;2022-11-15T14:40:47;95094.03;;;9.22;100.00
56038;BME280;41907;47.848;9.000;2022-11-15T14:43:13;95095.72;;;9.18;100.00
56038;BME280;41907;47.848;9.000;2022-11-15T14:45:38;95092.75;;;9.28;100.00
56038;BME280;41907;47.848;9.000;2022-11-15T14:48:04;95088.22;;;9.28;100.00
56038;BME280;41907;47.848;9.000;2022-11-15T14:50:31;95080.53;;;9.27;100.00
56038;BME280;41907;47.848;9.000;2022-11-15T14:52:57;95077.75;;;9.23;100.00
56038;BME280;41907;47.848;9.000;2022-11-15T14:55:28;95083.06;;;9.32;100.00
56038;BME280;41907;47.848;9.000;2022-11-15T14:57:56;95083.66;;;9.46;100.00
56038;BME280;41907;47.848;9.000;2022-11-15T15:00:22;95083.94;;;9.53;100.00
56038;BME280;41907;47.848;9.000;2022-11-15T15:02:48;95080.53;;;9.44;100.00
56038;BME280;41907;47.848;9.000;2022-11-15T15:07:50;95065.50;;;9.48;100.00
56038;BME280;41907;47.848;9.000;2022-11-15T15:10:17;95059.56;;;9.43;100.00
56038;BME280;41907;47.848;9.000;2022-11-15T15:12:42;95052.03;;;9.45;100.00
56038;BME280;41907;47.848;9.000;2022-11-15T15:15:16;95051.09;;;9.41;100.00
56038;BME280;41907;47.848;9.000;2022-11-15T15:17:43;95045.59;;;9.46;100.00